Time,TemperatureF,DewpointF,PressureIn,WindDirection,WindDirectionDegrees,WindSpeedMPH,WindSpeedGustMPH,Humidity,HourlyPrecipIn,Conditions,Clouds,dailyrainin,SoftwareType,DateUTC
2013-05-21 00:01:00,55.0,32.0,-100.00,NE,38,3.0,6.0,41,-99.99,,,-99.99,,2013-05-21 07:01:00,
2013-05-21 00:11:00,55.0,32.0,-100.00,NE,38,3.0,6.0,41,-99.99,,,-99.99,,2013-05-21 07:11:00,
2013-05-21 00:21:00,51.0,35.0,-100.00,SSW,210,1.0,6.0,53,-99.99,,,-99.99,,2013-05-21 07:21:00,
2013-05-21 00:31:00,51.0,35.0,-100.00,SSW,210,1.0,6.0,53,-99.99,,,-99.99,,2013-05-21 07:31:00,
2013-05-21 00:41:00,50.0,34.0,-100.00,ENE,76,1.0,5.0,55,-99.99,,,-99.99,,2013-05-21 07:41:00,
2013-05-21 00:52:00,50.0,34.0,-100.00,ENE,76,1.0,5.0,55,-99.99,,,-99.99,,2013-05-21 07:52:00,
2013-05-21 01:01:00,50.0,34.0,-100.00,ENE,76,1.0,5.0,55,-99.99,,,-99.99,,2013-05-21 08:01:00,
2013-05-21 01:42:00,49.0,35.0,-100.00,NNW,332,2.0,6.0,59,-99.99,,,-99.99,,2013-05-21 08:42:00,
2013-05-21 01:51:00,44.0,34.0,-100.00,ESE,114,4.0,8.0,67,-99.99,,,-99.99,,2013-05-21 08:51:00,
2013-05-21 01:52:00,49.0,35.0,-100.00,NNW,332,2.0,6.0,59,-99.99,,,-99.99,,2013-05-21 08:52:00,
2013-05-21 02:01:00,46.0,31.0,-100.00,East,82,3.0,5.0,56,-99.99,,,-99.99,,2013-05-21 09:01:00,
2013-05-21 02:11:00,44.0,33.0,-100.00,ESE,123,3.0,8.0,65,-99.99,,,-99.99,,2013-05-21 09:11:00,
2013-05-21 02:21:00,45.0,32.0,-100.00,East,100,5.0,9.0,60,-99.99,,,-99.99,,2013-05-21 09:21:00,
2013-05-21 02:32:00,44.0,34.0,-100.00,ESE,114,4.0,8.0,67,-99.99,,,-99.99,,2013-05-21 09:32:00,
2013-05-21 02:41:00,44.0,34.0,-100.00,ESE,114,4.0,8.0,67,-99.99,,,-99.99,,2013-05-21 09:41:00,
2013-05-21 03:02:00,43.0,33.0,-100.00,East,90,4.0,7.0,67,-99.99,,,-99.99,,2013-05-21 10:02:00,
2013-05-21 03:22:00,43.0,34.0,-100.00,East,90,4.0,9.0,69,-99.99,,,-99.99,,2013-05-21 10:22:00,
2013-05-21 03:32:00,44.0,33.0,-100.00,East,85,4.0,7.0,65,-99.99,,,-99.99,,2013-05-21 10:32:00,
2013-05-21 04:11:00,47.0,33.0,-100.00,ESE,123,3.0,7.0,58,-99.99,,,-99.99,,2013-05-21 11:11:00,
2013-05-21 04:21:00,47.0,33.0,-100.00,ESE,123,3.0,7.0,58,-99.99,,,-99.99,,2013-05-21 11:21:00,
2013-05-21 04:32:00,43.0,35.0,-100.00,NNW,328,2.0,7.0,74,-99.99,,,-99.99,,2013-05-21 11:32:00,
2013-05-21 04:41:00,44.0,35.0,-100.00,NNE,18,2.0,7.0,70,-99.99,,,-99.99,,2013-05-21 11:41:00,
2013-05-21 04:51:00,45.0,35.0,-100.00,East,100,3.0,5.0,69,-99.99,,,-99.99,,2013-05-21 11:51:00,
2013-05-21 05:01:00,43.0,36.0,-100.00,NNE,31,2.0,5.0,77,-99.99,,,-99.99,,2013-05-21 12:01:00,
2013-05-21 05:11:00,43.0,36.0,-100.00,NNE,31,2.0,5.0,77,-99.99,,,-99.99,,2013-05-21 12:11:00,
2013-05-21 05:21:00,42.0,36.0,-100.00,ESE,116,3.0,7.0,79,-99.99,,,-99.99,,2013-05-21 12:21:00,
2013-05-21 05:31:00,42.0,36.0,-100.00,ESE,116,3.0,7.0,79,-99.99,,,-99.99,,2013-05-21 12:31:00,
2013-05-21 05:41:00,41.0,35.0,-100.00,ESE,114,2.0,5.0,80,-99.99,,,-99.99,,2013-05-21 12:41:00,
2013-05-21 05:52:00,41.0,35.0,-100.00,ESE,114,2.0,5.0,80,-99.99,,,-99.99,,2013-05-21 12:52:00,
2013-05-21 06:22:00,41.0,35.0,-100.00,SW,232,2.0,6.0,80,-99.99,,,-99.99,,2013-05-21 13:22:00,
2013-05-21 06:31:00,43.0,36.0,-100.00,ESE,116,2.0,6.0,75,-99.99,,,-99.99,,2013-05-21 13:31:00,
2013-05-21 06:41:00,43.0,36.0,-100.00,ESE,116,2.0,6.0,75,-99.99,,,-99.99,,2013-05-21 13:41:00,
2013-05-21 06:52:00,43.0,34.0,-100.00,East,95,3.0,6.0,71,-99.99,,,-99.99,,2013-05-21 13:52:00,
2013-05-21 07:01:00,43.0,35.0,-100.00,East,92,2.0,6.0,74,-99.99,,,-99.99,,2013-05-21 14:01:00,
2013-05-21 07:11:00,43.0,35.0,-100.00,ESE,113,0.0,4.0,72,-99.99,,,-99.99,,2013-05-21 14:11:00,
2013-05-21 07:21:00,45.0,35.0,-100.00,NNE,18,0.0,4.0,68,-99.99,,,-99.99,,2013-05-21 14:21:00,
2013-05-21 07:31:00,45.0,35.0,-100.00,NNE,18,0.0,4.0,68,-99.99,,,-99.99,,2013-05-21 14:31:00,
2013-05-21 07:41:00,47.0,40.0,-100.00,NNW,332,0.0,3.0,76,-99.99,,,-99.99,,2013-05-21 14:41:00,
2013-05-21 08:01:00,50.0,39.0,-100.00,NNE,21,2.0,4.0,66,-99.99,,,-99.99,,2013-05-21 15:01:00,
2013-05-21 08:11:00,56.0,37.0,-100.00,NNE,25,2.0,6.0,48,-99.99,,,-99.99,,2013-05-21 15:11:00,
2013-05-21 08:53:00,64.0,34.0,-100.00,North,349,4.0,8.0,33,-99.99,,,-99.99,,2013-05-21 15:53:00,
2013-05-21 09:02:00,64.0,28.0,-100.00,NW,311,4.0,9.0,26,-99.99,,,-99.99,,2013-05-21 16:02:00,
2013-05-21 09:12:00,67.0,25.0,-100.00,SE,131,5.0,11.0,20,-99.99,,,-99.99,,2013-05-21 16:12:00,
2013-05-21 09:23:00,68.0,23.0,-100.00,SE,141,5.0,11.0,18,-99.99,,,-99.99,,2013-05-21 16:23:00,
2013-05-21 09:32:00,68.0,23.0,-100.00,SE,141,5.0,11.0,18,-99.99,,,-99.99,,2013-05-21 16:32:00,
2013-05-21 09:42:00,67.0,26.0,-100.00,SSW,196,13.0,26.0,21,-99.99,,,-99.99,,2013-05-21 16:42:00,
2013-05-21 09:53:00,67.0,26.0,-100.00,SSW,196,13.0,26.0,21,-99.99,,,-99.99,,2013-05-21 16:53:00,
2013-05-21 10:02:00,68.0,23.0,-100.00,South,191,13.0,27.0,18,-99.99,,,-99.99,,2013-05-21 17:02:00,
2013-05-21 10:12:00,67.0,18.0,-100.00,SSW,205,18.0,33.0,15,-99.99,,,-99.99,,2013-05-21 17:12:00,
2013-05-21 10:23:00,67.0,18.0,-100.00,SSW,205,18.0,33.0,15,-99.99,,,-99.99,,2013-05-21 17:23:00,
2013-05-21 10:32:00,68.0,25.0,-100.00,SSW,209,20.0,31.0,20,-99.99,,,-99.99,,2013-05-21 17:32:00,
2013-05-21 10:43:00,68.0,25.0,-100.00,SSW,208,19.0,31.0,20,-99.99,,,-99.99,,2013-05-21 17:43:00,
2013-05-21 10:52:00,68.0,36.0,-100.00,SSW,202,16.0,28.0,30,-99.99,,,-99.99,,2013-05-21 17:52:00,
2013-05-21 11:01:00,68.0,36.0,-100.00,SSW,202,16.0,28.0,30,-99.99,,,-99.99,,2013-05-21 18:01:00,
2013-05-21 11:11:00,69.0,26.0,-100.00,SSW,195,12.0,22.0,20,-99.99,,,-99.99,,2013-05-21 18:11:00,
2013-05-21 11:22:00,69.0,30.0,-100.00,SSW,199,14.0,27.0,24,-99.99,,,-99.99,,2013-05-21 18:22:00,
2013-05-21 11:32:00,69.0,30.0,-100.00,SSW,199,14.0,27.0,24,-99.99,,,-99.99,,2013-05-21 18:32:00,
2013-05-21 11:42:00,69.0,33.0,-100.00,South,182,17.0,29.0,26,-99.99,,,-99.99,,2013-05-21 18:42:00,
2013-05-21 11:52:00,69.0,32.0,-100.00,SSW,203,17.0,27.0,25,-99.99,,,-99.99,,2013-05-21 18:52:00,
2013-05-21 12:01:00,69.0,35.0,-100.00,SW,217,25.0,39.0,29,-99.99,,,-99.99,,2013-05-21 19:01:00,
2013-05-21 12:11:00,69.0,35.0,-100.00,SW,217,25.0,39.0,29,-99.99,,,-99.99,,2013-05-21 19:11:00,
2013-05-21 12:21:00,69.0,31.0,-100.00,SSW,213,22.0,34.0,24,-99.99,,,-99.99,,2013-05-21 19:21:00,
2013-05-21 12:31:00,68.0,33.0,-100.00,SSW,212,26.0,39.0,27,-99.99,,,-99.99,,2013-05-21 19:31:00,
2013-05-21 12:41:00,68.0,33.0,-100.00,SSW,212,26.0,39.0,27,-99.99,,,-99.99,,2013-05-21 19:41:00,
2013-05-21 12:52:00,68.0,33.0,-100.00,SSW,212,26.0,39.0,27,-99.99,,,-99.99,,2013-05-21 19:52:00,
2013-05-21 13:11:00,68.0,30.0,-100.00,SW,217,28.0,41.0,24,-99.99,,,-99.99,,2013-05-21 20:11:00,
2013-05-21 13:22:00,68.0,30.0,-100.00,SW,217,28.0,41.0,24,-99.99,,,-99.99,,2013-05-21 20:22:00,
2013-05-21 13:32:00,68.0,32.0,-100.00,SW,215,32.0,49.0,26,-99.99,,,-99.99,,2013-05-21 20:32:00,
2013-05-21 13:42:00,68.0,32.0,-100.00,SW,215,32.0,49.0,26,-99.99,,,-99.99,,2013-05-21 20:42:00,
2013-05-21 13:52:00,68.0,31.0,-100.00,SSW,206,28.0,43.0,25,-99.99,,,-99.99,,2013-05-21 20:52:00,
2013-05-21 14:01:00,68.0,31.0,-100.00,SSW,206,28.0,43.0,25,-99.99,,,-99.99,,2013-05-21 21:01:00,
2013-05-21 14:11:00,68.0,34.0,-100.00,SSW,200,29.0,49.0,28,-99.99,,,-99.99,,2013-05-21 21:11:00,
2013-05-21 14:21:00,69.0,34.0,-100.00,SSW,195,24.0,39.0,27,-99.99,,,-99.99,,2013-05-21 21:21:00,
2013-05-21 14:32:00,69.0,34.0,-100.00,SSW,195,24.0,39.0,27,-99.99,,,-99.99,,2013-05-21 21:32:00,
2013-05-21 14:43:00,68.0,33.0,-100.00,South,186,25.0,39.0,27,-99.99,,,-99.99,,2013-05-21 21:43:00,
2013-05-21 14:54:00,68.0,33.0,-100.00,South,186,25.0,39.0,27,-99.99,,,-99.99,,2013-05-21 21:54:00,
2013-05-21 15:02:00,69.0,39.0,-100.00,SSW,209,17.0,32.0,33,-99.99,,,-99.99,,2013-05-21 22:02:00,
2013-05-21 15:12:00,68.0,34.0,-100.00,SSW,198,19.0,36.0,28,-99.99,,,-99.99,,2013-05-21 22:12:00,
2013-05-21 15:22:00,68.0,35.0,-100.00,SSW,200,23.0,39.0,29,-99.99,,,-99.99,,2013-05-21 22:22:00,
2013-05-21 15:33:00,68.0,32.0,-100.00,SSW,203,27.0,42.0,26,-99.99,,,-99.99,,2013-05-21 22:33:00,
2013-05-21 15:42:00,68.0,32.0,-100.00,SSW,203,27.0,42.0,26,-99.99,,,-99.99,,2013-05-21 22:42:00,
2013-05-21 15:52:00,68.0,32.0,-100.00,SSW,203,27.0,42.0,26,-99.99,,,-99.99,,2013-05-21 22:52:00,
2013-05-21 16:02:00,67.0,29.0,-100.00,SSW,208,30.0,46.0,24,-99.99,,,-99.99,,2013-05-21 23:02:00,
2013-05-21 16:12:00,67.0,31.0,-100.00,SSW,196,26.0,46.0,26,-99.99,,,-99.99,,2013-05-21 23:12:00,
2013-05-21 16:22:00,67.0,33.0,-100.00,SSW,198,26.0,46.0,28,-99.99,,,-99.99,,2013-05-21 23:22:00,
2013-05-21 16:32:00,67.0,32.0,-100.00,SSW,198,28.0,42.0,27,-99.99,,,-99.99,,2013-05-21 23:32:00,
2013-05-21 16:42:00,67.0,29.0,-100.00,SSW,200,27.0,48.0,24,-99.99,,,-99.99,,2013-05-21 23:42:00,
2013-05-21 16:52:00,67.0,29.0,-100.00,SSW,200,27.0,48.0,24,-99.99,,,-99.99,,2013-05-21 23:52:00,
2013-05-21 17:01:00,67.0,34.0,-100.00,SSW,195,25.0,45.0,30,-99.99,,,-99.99,,2013-05-22 00:01:00,
2013-05-21 17:11:00,67.0,30.0,-100.00,South,184,18.0,29.0,25,-99.99,,,-99.99,,2013-05-22 00:11:00,
2013-05-21 17:21:00,67.0,29.0,-100.00,South,191,16.0,31.0,24,-99.99,,,-99.99,,2013-05-22 00:21:00,
2013-05-21 17:31:00,67.0,29.0,-100.00,South,191,16.0,31.0,24,-99.99,,,-99.99,,2013-05-22 00:31:00,
2013-05-21 17:41:00,67.0,29.0,-100.00,South,191,16.0,31.0,24,-99.99,,,-99.99,,2013-05-22 00:41:00,
2013-05-21 17:51:00,66.0,25.0,-100.00,SSW,203,13.0,32.0,21,-99.99,,,-99.99,,2013-05-22 00:51:00,
2013-05-21 18:01:00,66.0,25.0,-100.00,SSW,203,13.0,32.0,21,-99.99,,,-99.99,,2013-05-22 01:01:00,
2013-05-21 18:11:00,66.0,25.0,-100.00,SSW,203,13.0,32.0,21,-99.99,,,-99.99,,2013-05-22 01:11:00,
2013-05-21 18:21:00,66.0,29.0,-100.00,SSW,192,15.0,29.0,25,-99.99,,,-99.99,,2013-05-22 01:21:00,
2013-05-21 18:32:00,65.0,27.0,-100.00,SSW,192,13.0,25.0,24,-99.99,,,-99.99,,2013-05-22 01:32:00,
2013-05-21 18:41:00,65.0,27.0,-100.00,SSW,192,13.0,25.0,24,-99.99,,,-99.99,,2013-05-22 01:41:00,
2013-05-21 18:52:00,64.0,31.0,-100.00,SSW,196,17.0,32.0,29,-99.99,,,-99.99,,2013-05-22 01:52:00,
2013-05-21 19:01:00,64.0,31.0,-100.00,SSW,196,17.0,32.0,29,-99.99,,,-99.99,,2013-05-22 02:01:00,
2013-05-21 19:11:00,64.0,25.0,-100.00,South,188,17.0,34.0,23,-99.99,,,-99.99,,2013-05-22 02:11:00,
2013-05-21 19:21:00,64.0,25.0,-100.00,South,184,8.0,19.0,23,-99.99,,,-99.99,,2013-05-22 02:21:00,
2013-05-21 19:32:00,64.0,26.0,-100.00,SSE,151,9.0,21.0,24,-99.99,,,-99.99,,2013-05-22 02:32:00,
2013-05-21 19:41:00,64.0,26.0,-100.00,SSE,151,9.0,21.0,24,-99.99,,,-99.99,,2013-05-22 02:41:00,
2013-05-21 19:52:00,64.0,26.0,-100.00,SSE,151,9.0,21.0,24,-99.99,,,-99.99,,2013-05-22 02:52:00,
2013-05-21 20:01:00,62.0,28.0,-100.00,SSW,196,6.0,19.0,27,-99.99,,,-99.99,,2013-05-22 03:01:00,
2013-05-21 20:11:00,60.0,26.0,-100.00,South,174,4.0,10.0,27,-99.99,,,-99.99,,2013-05-22 03:11:00,
2013-05-21 20:21:00,60.0,28.0,-100.00,South,172,4.0,10.0,29,-99.99,,,-99.99,,2013-05-22 03:21:00,
2013-05-21 20:33:00,60.0,28.0,-100.00,South,172,4.0,10.0,29,-99.99,,,-99.99,,2013-05-22 03:33:00,
2013-05-21 20:53:00,59.0,22.0,-100.00,SW,232,9.0,17.0,24,-99.99,,,-99.99,,2013-05-22 03:53:00,
2013-05-21 21:03:00,59.0,22.0,-100.00,SW,232,9.0,17.0,24,-99.99,,,-99.99,,2013-05-22 04:03:00,
2013-05-21 21:12:00,59.0,22.0,-100.00,SW,232,9.0,17.0,24,-99.99,,,-99.99,,2013-05-22 04:12:00,
2013-05-21 21:20:00,56.0,20.0,-100.00,SSW,195,4.0,9.0,24,-99.99,,,-99.99,,2013-05-22 04:20:00,
2013-05-21 21:53:00,56.0,20.0,-100.00,SSW,195,4.0,9.0,24,-99.99,,,-99.99,,2013-05-22 04:53:00,
2013-05-21 22:02:00,56.0,20.0,-100.00,SSW,195,4.0,9.0,24,-99.99,,,-99.99,,2013-05-22 05:02:00,
2013-05-21 22:11:00,56.0,20.0,-100.00,SSW,195,4.0,9.0,24,-99.99,,,-99.99,,2013-05-22 05:11:00,
2013-05-21 22:31:00,54.0,18.0,-100.00,SW,230,5.0,10.0,24,-99.99,,,-99.99,,2013-05-22 05:31:00,
2013-05-21 22:42:00,54.0,18.0,-100.00,SW,230,5.0,10.0,24,-99.99,,,-99.99,,2013-05-22 05:42:00,
2013-05-21 22:51:00,56.0,14.0,-100.00,SW,223,6.0,15.0,18,-99.99,,,-99.99,,2013-05-22 05:51:00,
2013-05-21 23:01:00,56.0,14.0,-100.00,SW,223,6.0,15.0,18,-99.99,,,-99.99,,2013-05-22 06:01:00,
2013-05-21 23:11:00,54.0,17.0,-100.00,WSW,237,4.0,9.0,23,-99.99,,,-99.99,,2013-05-22 06:11:00,
2013-05-21 23:21:00,54.0,28.0,-100.00,SSW,209,6.0,15.0,36,-99.99,,,-99.99,,2013-05-22 06:21:00,
2013-05-21 23:31:00,54.0,28.0,-100.00,SSW,209,6.0,15.0,36,-99.99,,,-99.99,,2013-05-22 06:31:00,
2013-05-21 23:42:00,54.0,18.0,-100.00,SW,224,5.0,11.0,24,-99.99,,,-99.99,,2013-05-22 06:42:00,
2013-05-21 23:52:00,53.0,22.0,-100.00,SSW,196,3.0,7.0,29,-99.99,,,-99.99,,2013-05-22 06:52:00,